Lady Ann Magee — 9HA2775 — position and weather

sailwx.info

Track history (hours):
 
Tides and Currents Weather Stations Pressure Air Temp Water Temp Dewpoint Dewpoint Depression Visibility Wind Speed Wind Dir Waves Ship Positions

Lady Ann Magee

Last reported at 2016-Aug-23 08:33 UTC. Time now 2016-Aug-26 06:44 UTC.
Position N 43°44' E 007°26'.

Length 50 m; draft 3.4 m.

Type: Pleasure craft. MMSI: 215660000.

Date/timePositionNaut miles runAvg speedWind from/ knotsBaromVisibWave heightAir tempDewpointWater temp
2016-Aug-23 08:33N 43°44' E 007°26'10 9.4
2016-Aug-23 07:32N 43°37' E 007°17'1211.8
2016-Aug-23 06:33N 43°30' E 007°04'4 3.5
2016-Aug-23 05:32N 43°33' E 007°01'0 0.0
2016-Aug-23 04:32N 43°33' E 007°01'0 0.0
2016-Aug-23 03:31N 43°33' E 007°01'0 0.0
2016-Aug-23 02:32N 43°33' E 007°01'0 0.0
2016-Aug-23 00:26N 43°33' E 007°01'0 0.0
2016-Aug-22 23:26N 43°33' E 007°01'0 0.0
2016-Aug-22 22:23N 43°33' E 007°01'0 0.0
2016-Aug-22 21:26N 43°33' E 007°01'0 0.0
2016-Aug-22 20:08N 43°33' E 007°01'0 0.0
2016-Aug-22 19:28N 43°33' E 007°01'0 0.0
2016-Aug-22 18:29N 43°33' E 007°01'0 0.0
2016-Aug-22 17:32N 43°33' E 007°01'0 0.0
2016-Aug-22 13:32N 43°33' E 007°01'7 7.4
2016-Aug-22 12:33N 43°33' E 007°11'1312.1
2016-Aug-22 11:28N 43°42' E 007°24'  
2016-Aug-20 04:31N 43°44' E 007°25'  
2016-Aug-16 14:13N 43°44' E 007°25'0 0.0
2016-Aug-16 07:31N 43°44' E 007°25'0 0.0
2016-Aug-15 11:25N 43°44' E 007°25'0 0.0
2016-Aug-15 06:25N 43°44' E 007°25'0 0.0
2016-Aug-14 12:19N 43°44' E 007°25'0 0.0
2016-Aug-14 10:25N 43°44' E 007°25'0 0.0
2016-Aug-14 06:14N 43°44' E 007°25'32 8.5
2016-Aug-14 02:33N 43°48' E 008°09'10 9.6
2016-Aug-14 01:33N 43°53' E 008°20'10 9.8
2016-Aug-14 00:33N 43°59' E 008°31'1010.2
2016-Aug-13 23:33N 44°04' E 008°43'10 9.9
2016-Aug-13 22:33N 44°09' E 008°55'10 9.8
2016-Aug-13 21:33N 44°14' E 009°07'6 4.5
2016-Aug-13 20:14N 44°18' E 009°13'0 0.3
2016-Aug-13 19:19N 44°19' E 009°13'0 0.0
2016-Aug-13 18:22N 44°19' E 009°13'0 0.0
2016-Aug-13 17:31N 44°19' E 009°13'0 0.0
2016-Aug-13 15:25N 44°19' E 009°13'0 0.0
2016-Aug-13 14:31N 44°19' E 009°13'0 0.0
2016-Aug-13 13:25N 44°19' E 009°13'0 0.0
2016-Aug-13 12:31N 44°19' E 009°13'0 0.0
2016-Aug-13 11:31N 44°19' E 009°13'0 0.0
2016-Aug-13 09:19N 44°19' E 009°13'  
Track history (hours):
 
Tides and Currents Weather Stations Pressure Air Temp Water Temp Dewpoint Dewpoint Depression Visibility Wind Speed Wind Dir Waves Ship Positions

Lady Ann Magee

Last reported at 2016-Aug-23 08:33 UTC. Time now 2016-Aug-26 06:44 UTC.
Position N 43°44' E 007°26'.

Length 50 m; draft 3.4 m.

Type: Pleasure craft. MMSI: 215660000.

Date/timePositionNaut miles runAvg speedWind from/ knotsBaromVisibWave heightAir tempDewpointWater temp
2016-Aug-23 08:33N 43°44' E 007°26'10 9.4
2016-Aug-23 07:32N 43°37' E 007°17'1211.8
2016-Aug-23 06:33N 43°30' E 007°04'4 3.5
2016-Aug-23 05:32N 43°33' E 007°01'0 0.0
2016-Aug-23 04:32N 43°33' E 007°01'0 0.0
2016-Aug-23 03:31N 43°33' E 007°01'0 0.0
2016-Aug-23 02:32N 43°33' E 007°01'0 0.0
2016-Aug-23 00:26N 43°33' E 007°01'0 0.0
2016-Aug-22 23:26N 43°33' E 007°01'0 0.0
2016-Aug-22 22:23N 43°33' E 007°01'0 0.0
2016-Aug-22 21:26N 43°33' E 007°01'0 0.0
2016-Aug-22 20:08N 43°33' E 007°01'0 0.0
2016-Aug-22 19:28N 43°33' E 007°01'0 0.0
2016-Aug-22 18:29N 43°33' E 007°01'0 0.0
2016-Aug-22 17:32N 43°33' E 007°01'0 0.0
2016-Aug-22 13:32N 43°33' E 007°01'7 7.4
2016-Aug-22 12:33N 43°33' E 007°11'1312.1
2016-Aug-22 11:28N 43°42' E 007°24'  
2016-Aug-20 04:31N 43°44' E 007°25'  
2016-Aug-16 14:13N 43°44' E 007°25'0 0.0
2016-Aug-16 07:31N 43°44' E 007°25'0 0.0
2016-Aug-15 11:25N 43°44' E 007°25'0 0.0
2016-Aug-15 06:25N 43°44' E 007°25'0 0.0
2016-Aug-14 12:19N 43°44' E 007°25'0 0.0
2016-Aug-14 10:25N 43°44' E 007°25'0 0.0
2016-Aug-14 06:14N 43°44' E 007°25'32 8.5
2016-Aug-14 02:33N 43°48' E 008°09'10 9.6
2016-Aug-14 01:33N 43°53' E 008°20'10 9.8
2016-Aug-14 00:33N 43°59' E 008°31'1010.2
2016-Aug-13 23:33N 44°04' E 008°43'10 9.9
2016-Aug-13 22:33N 44°09' E 008°55'10 9.8
2016-Aug-13 21:33N 44°14' E 009°07'6 4.5
2016-Aug-13 20:14N 44°18' E 009°13'0 0.3
2016-Aug-13 19:19N 44°19' E 009°13'0 0.0
2016-Aug-13 18:22N 44°19' E 009°13'0 0.0
2016-Aug-13 17:31N 44°19' E 009°13'0 0.0
2016-Aug-13 15:25N 44°19' E 009°13'0 0.0
2016-Aug-13 14:31N 44°19' E 009°13'0 0.0
2016-Aug-13 13:25N 44°19' E 009°13'0 0.0
2016-Aug-13 12:31N 44°19' E 009°13'0 0.0
2016-Aug-13 11:31N 44°19' E 009°13'0 0.0
2016-Aug-13 09:19N 44°19' E 009°13'  

Dump ship's entire track history